sensor_id;sensor_type;location;lat;lon;timestamp;P1;durP1;ratioP1;P2;durP2;ratioP2
70416;SDS011;57839;51.332;12.410;2023-05-07T00:00:57;13.48;;;10.38;;
70416;SDS011;57839;51.332;12.410;2023-05-07T00:03:25;12.20;;;9.10;;
70416;SDS011;57839;51.332;12.410;2023-05-07T00:05:51;12.27;;;10.10;;
70416;SDS011;57839;51.332;12.410;2023-05-07T00:08:18;11.95;;;9.80;;
70416;SDS011;57839;51.332;12.410;2023-05-07T00:10:43;9.73;;;8.10;;
70416;SDS011;57839;51.332;12.410;2023-05-07T00:13:09;11.43;;;8.23;;
70416;SDS011;57839;51.332;12.410;2023-05-07T00:15:35;9.23;;;8.10;;
70416;SDS011;57839;51.332;12.410;2023-05-07T00:18:00;12.20;;;8.05;;
70416;SDS011;57839;51.332;12.410;2023-05-07T00:20:26;8.70;;;7.78;;
70416;SDS011;57839;51.332;12.410;2023-05-07T00:22:52;8.93;;;7.47;;
70416;SDS011;57839;51.332;12.410;2023-05-07T00:25:18;10.25;;;7.85;;
70416;SDS011;57839;51.332;12.410;2023-05-07T00:27:45;9.50;;;7.82;;
70416;SDS011;57839;51.332;12.410;2023-05-07T00:30:10;10.20;;;8.50;;
70416;SDS011;57839;51.332;12.410;2023-05-07T00:32:37;9.43;;;8.23;;
70416;SDS011;57839;51.332;12.410;2023-05-07T00:35:03;9.73;;;8.20;;
70416;SDS011;57839;51.332;12.410;2023-05-07T00:37:30;9.63;;;8.27;;
70416;SDS011;57839;51.332;12.410;2023-05-07T00:39:55;11.43;;;8.70;;
70416;SDS011;57839;51.332;12.410;2023-05-07T00:42:21;9.00;;;7.97;;
70416;SDS011;57839;51.332;12.410;2023-05-07T00:44:47;8.35;;;7.50;;
70416;SDS011;57839;51.332;12.410;2023-05-07T00:47:12;10.25;;;8.75;;
70416;SDS011;57839;51.332;12.410;2023-05-07T00:49:39;11.10;;;8.93;;
70416;SDS011;57839;51.332;12.410;2023-05-07T00:52:07;10.27;;;9.18;;
70416;SDS011;57839;51.332;12.410;2023-05-07T00:54:34;9.82;;;8.77;;
70416;SDS011;57839;51.332;12.410;2023-05-07T00:57:01;11.13;;;9.68;;
70416;SDS011;57839;51.332;12.410;2023-05-07T00:59:28;13.68;;;10.45;;
70416;SDS011;57839;51.332;12.410;2023-05-07T01:01:54;11.77;;;9.50;;
70416;SDS011;57839;51.332;12.410;2023-05-07T01:04:20;11.30;;;9.25;;
70416;SDS011;57839;51.332;12.410;2023-05-07T01:06:45;15.00;;;10.90;;
70416;SDS011;57839;51.332;12.410;2023-05-07T01:09:11;14.35;;;11.02;;
70416;SDS011;57839;51.332;12.410;2023-05-07T01:11:37;11.63;;;9.88;;
70416;SDS011;57839;51.332;12.410;2023-05-07T01:14:03;12.77;;;10.70;;
70416;SDS011;57839;51.332;12.410;2023-05-07T01:16:29;12.10;;;10.30;;
70416;SDS011;57839;51.332;12.410;2023-05-07T01:18:55;12.23;;;10.52;;
70416;SDS011;57839;51.332;12.410;2023-05-07T01:21:23;13.48;;;10.15;;
70416;SDS011;57839;51.332;12.410;2023-05-07T01:23:51;12.68;;;10.77;;
70416;SDS011;57839;51.332;12.410;2023-05-07T01:26:17;12.93;;;11.00;;
70416;SDS011;57839;51.332;12.410;2023-05-07T01:28:45;15.77;;;11.82;;
70416;SDS011;57839;51.332;12.410;2023-05-07T01:31:10;15.95;;;11.30;;
70416;SDS011;57839;51.332;12.410;2023-05-07T01:33:38;13.88;;;11.55;;
70416;SDS011;57839;51.332;12.410;2023-05-07T01:36:04;14.95;;;12.15;;
70416;SDS011;57839;51.332;12.410;2023-05-07T01:38:31;15.68;;;12.10;;
70416;SDS011;57839;51.332;12.410;2023-05-07T01:40:57;17.17;;;11.63;;
70416;SDS011;57839;51.332;12.410;2023-05-07T01:43:23;15.35;;;11.70;;
70416;SDS011;57839;51.332;12.410;2023-05-07T01:45:49;16.70;;;12.68;;
70416;SDS011;57839;51.332;12.410;2023-05-07T01:48:15;14.38;;;10.88;;
70416;SDS011;57839;51.332;12.410;2023-05-07T01:50:41;14.48;;;11.80;;
70416;SDS011;57839;51.332;12.410;2023-05-07T01:53:07;15.82;;;13.18;;
70416;SDS011;57839;51.332;12.410;2023-05-07T01:55:33;16.33;;;13.73;;
70416;SDS011;57839;51.332;12.410;2023-05-07T01:57:59;15.63;;;13.45;;
70416;SDS011;57839;51.332;12.410;2023-05-07T02:00:24;18.13;;;14.38;;
70416;SDS011;57839;51.332;12.410;2023-05-07T02:02:50;21.13;;;15.95;;
70416;SDS011;57839;51.332;12.410;2023-05-07T02:05:16;18.25;;;15.05;;
70416;SDS011;57839;51.332;12.410;2023-05-07T02:07:42;19.52;;;15.43;;
70416;SDS011;57839;51.332;12.410;2023-05-07T02:10:07;17.52;;;14.57;;
70416;SDS011;57839;51.332;12.410;2023-05-07T02:12:33;16.33;;;14.27;;
70416;SDS011;57839;51.332;12.410;2023-05-07T02:14:58;17.92;;;15.02;;
70416;SDS011;57839;51.332;12.410;2023-05-07T02:17:24;18.30;;;14.85;;
70416;SDS011;57839;51.332;12.410;2023-05-07T02:19:50;17.73;;;13.98;;
70416;SDS011;57839;51.332;12.410;2023-05-07T02:22:16;18.92;;;14.80;;
70416;SDS011;57839;51.332;12.410;2023-05-07T02:24:41;16.30;;;14.25;;
70416;SDS011;57839;51.332;12.410;2023-05-07T02:27:07;19.30;;;14.52;;
70416;SDS011;57839;51.332;12.410;2023-05-07T02:29:33;18.35;;;15.63;;
70416;SDS011;57839;51.332;12.410;2023-05-07T02:31:58;18.27;;;15.45;;
70416;SDS011;57839;51.332;12.410;2023-05-07T02:34:23;17.17;;;14.20;;
70416;SDS011;57839;51.332;12.410;2023-05-07T02:36:49;17.55;;;14.75;;
70416;SDS011;57839;51.332;12.410;2023-05-07T02:39:16;17.67;;;14.35;;
70416;SDS011;57839;51.332;12.410;2023-05-07T02:41:42;15.93;;;14.23;;
70416;SDS011;57839;51.332;12.410;2023-05-07T02:44:07;17.40;;;14.65;;
70416;SDS011;57839;51.332;12.410;2023-05-07T02:46:33;18.80;;;15.52;;
70416;SDS011;57839;51.332;12.410;2023-05-07T02:48:58;18.77;;;15.88;;
70416;SDS011;57839;51.332;12.410;2023-05-07T02:51:25;17.27;;;14.30;;
70416;SDS011;57839;51.332;12.410;2023-05-07T02:53:51;18.10;;;15.02;;
70416;SDS011;57839;51.332;12.410;2023-05-07T02:56:16;17.45;;;14.50;;
70416;SDS011;57839;51.332;12.410;2023-05-07T02:58:42;15.88;;;14.13;;
70416;SDS011;57839;51.332;12.410;2023-05-07T03:01:08;18.23;;;15.05;;
70416;SDS011;57839;51.332;12.410;2023-05-07T03:03:34;15.50;;;13.25;;
70416;SDS011;57839;51.332;12.410;2023-05-07T03:05:59;18.08;;;14.80;;
70416;SDS011;57839;51.332;12.410;2023-05-07T03:08:25;15.65;;;13.88;;
70416;SDS011;57839;51.332;12.410;2023-05-07T03:10:50;16.75;;;14.95;;
70416;SDS011;57839;51.332;12.410;2023-05-07T03:13:16;15.60;;;13.90;;
70416;SDS011;57839;51.332;12.410;2023-05-07T03:15:42;15.55;;;12.73;;
70416;SDS011;57839;51.332;12.410;2023-05-07T03:18:07;15.60;;;13.93;;
70416;SDS011;57839;51.332;12.410;2023-05-07T03:20:33;17.33;;;13.85;;
70416;SDS011;57839;51.332;12.410;2023-05-07T03:22:59;15.60;;;13.07;;
70416;SDS011;57839;51.332;12.410;2023-05-07T03:25:24;14.50;;;13.00;;
70416;SDS011;57839;51.332;12.410;2023-05-07T03:27:50;15.15;;;13.63;;
70416;SDS011;57839;51.332;12.410;2023-05-07T03:30:15;16.08;;;14.23;;
70416;SDS011;57839;51.332;12.410;2023-05-07T03:32:41;15.23;;;13.35;;
70416;SDS011;57839;51.332;12.410;2023-05-07T03:35:07;14.75;;;13.20;;
70416;SDS011;57839;51.332;12.410;2023-05-07T03:37:33;18.30;;;14.65;;
70416;SDS011;57839;51.332;12.410;2023-05-07T03:39:58;17.40;;;14.68;;
70416;SDS011;57839;51.332;12.410;2023-05-07T03:42:24;16.50;;;13.82;;
70416;SDS011;57839;51.332;12.410;2023-05-07T03:44:49;15.85;;;13.77;;
70416;SDS011;57839;51.332;12.410;2023-05-07T03:47:15;16.80;;;13.85;;
70416;SDS011;57839;51.332;12.410;2023-05-07T03:49:40;17.38;;;12.90;;
70416;SDS011;57839;51.332;12.410;2023-05-07T03:52:06;16.88;;;13.55;;
70416;SDS011;57839;51.332;12.410;2023-05-07T03:54:31;17.17;;;13.50;;
70416;SDS011;57839;51.332;12.410;2023-05-07T03:56:57;17.35;;;13.35;;
70416;SDS011;57839;51.332;12.410;2023-05-07T03:59:23;16.77;;;13.55;;
70416;SDS011;57839;51.332;12.410;2023-05-07T04:01:48;15.40;;;13.10;;
70416;SDS011;57839;51.332;12.410;2023-05-07T04:04:14;18.83;;;14.90;;
70416;SDS011;57839;51.332;12.410;2023-05-07T04:06:40;14.93;;;12.27;;
70416;SDS011;57839;51.332;12.410;2023-05-07T04:09:06;14.52;;;12.75;;
70416;SDS011;57839;51.332;12.410;2023-05-07T04:11:31;16.80;;;13.68;;
70416;SDS011;57839;51.332;12.410;2023-05-07T04:13:57;15.40;;;13.27;;
70416;SDS011;57839;51.332;12.410;2023-05-07T04:16:23;17.35;;;14.05;;
70416;SDS011;57839;51.332;12.410;2023-05-07T04:18:48;17.42;;;13.90;;
70416;SDS011;57839;51.332;12.410;2023-05-07T04:21:14;17.48;;;13.30;;
70416;SDS011;57839;51.332;12.410;2023-05-07T04:23:40;15.80;;;12.52;;
70416;SDS011;57839;51.332;12.410;2023-05-07T04:26:06;16.15;;;13.40;;
70416;SDS011;57839;51.332;12.410;2023-05-07T04:28:32;17.58;;;14.95;;
70416;SDS011;57839;51.332;12.410;2023-05-07T04:30:57;16.67;;;13.85;;
70416;SDS011;57839;51.332;12.410;2023-05-07T04:33:23;15.88;;;13.77;;
70416;SDS011;57839;51.332;12.410;2023-05-07T04:35:48;16.00;;;12.77;;
70416;SDS011;57839;51.332;12.410;2023-05-07T04:38:14;14.75;;;12.95;;
70416;SDS011;57839;51.332;12.410;2023-05-07T04:40:39;15.43;;;12.32;;
70416;SDS011;57839;51.332;12.410;2023-05-07T04:43:06;15.45;;;12.60;;
70416;SDS011;57839;51.332;12.410;2023-05-07T04:45:32;16.27;;;13.05;;
70416;SDS011;57839;51.332;12.410;2023-05-07T04:47:58;15.82;;;13.27;;
70416;SDS011;57839;51.332;12.410;2023-05-07T04:50:23;16.10;;;12.48;;
70416;SDS011;57839;51.332;12.410;2023-05-07T04:52:50;18.30;;;13.82;;
70416;SDS011;57839;51.332;12.410;2023-05-07T04:55:15;13.93;;;12.20;;
70416;SDS011;57839;51.332;12.410;2023-05-07T04:57:41;18.30;;;13.75;;
70416;SDS011;57839;51.332;12.410;2023-05-07T05:00:07;14.60;;;12.77;;
70416;SDS011;57839;51.332;12.410;2023-05-07T05:02:34;13.82;;;12.18;;
70416;SDS011;57839;51.332;12.410;2023-05-07T05:05:00;14.32;;;11.52;;
70416;SDS011;57839;51.332;12.410;2023-05-07T05:07:27;13.55;;;11.75;;
70416;SDS011;57839;51.332;12.410;2023-05-07T05:09:54;14.85;;;12.27;;
70416;SDS011;57839;51.332;12.410;2023-05-07T05:12:20;14.07;;;11.43;;
70416;SDS011;57839;51.332;12.410;2023-05-07T05:14:46;14.13;;;11.60;;
70416;SDS011;57839;51.332;12.410;2023-05-07T05:17:12;12.63;;;10.65;;
70416;SDS011;57839;51.332;12.410;2023-05-07T05:19:37;15.07;;;11.75;;
70416;SDS011;57839;51.332;12.410;2023-05-07T05:22:03;13.93;;;10.95;;
70416;SDS011;57839;51.332;12.410;2023-05-07T05:24:29;12.50;;;10.40;;
70416;SDS011;57839;51.332;12.410;2023-05-07T05:26:55;12.90;;;10.93;;
70416;SDS011;57839;51.332;12.410;2023-05-07T05:29:21;15.30;;;10.50;;
70416;SDS011;57839;51.332;12.410;2023-05-07T05:31:49;13.73;;;11.38;;
70416;SDS011;57839;51.332;12.410;2023-05-07T05:34:15;11.95;;;10.75;;
70416;SDS011;57839;51.332;12.410;2023-05-07T05:36:42;13.35;;;10.52;;
70416;SDS011;57839;51.332;12.410;2023-05-07T05:39:07;12.27;;;10.45;;
70416;SDS011;57839;51.332;12.410;2023-05-07T05:41:33;10.18;;;8.88;;
70416;SDS011;57839;51.332;12.410;2023-05-07T05:43:59;10.88;;;9.70;;
70416;SDS011;57839;51.332;12.410;2023-05-07T05:46:24;11.30;;;9.98;;
70416;SDS011;57839;51.332;12.410;2023-05-07T05:48:50;10.93;;;9.25;;
70416;SDS011;57839;51.332;12.410;2023-05-07T05:51:15;12.93;;;10.02;;
70416;SDS011;57839;51.332;12.410;2023-05-07T05:53:41;11.23;;;9.80;;
70416;SDS011;57839;51.332;12.410;2023-05-07T05:56:06;11.73;;;9.65;;
70416;SDS011;57839;51.332;12.410;2023-05-07T05:58:32;13.95;;;10.88;;
70416;SDS011;57839;51.332;12.410;2023-05-07T06:00:58;11.73;;;10.10;;
70416;SDS011;57839;51.332;12.410;2023-05-07T06:03:23;14.13;;;11.45;;
70416;SDS011;57839;51.332;12.410;2023-05-07T06:05:49;11.35;;;9.90;;
70416;SDS011;57839;51.332;12.410;2023-05-07T06:08:15;33.67;;;24.58;;
70416;SDS011;57839;51.332;12.410;2023-05-07T06:10:40;19.55;;;15.55;;
70416;SDS011;57839;51.332;12.410;2023-05-07T06:13:06;13.98;;;10.93;;
70416;SDS011;57839;51.332;12.410;2023-05-07T06:15:32;14.98;;;11.05;;
70416;SDS011;57839;51.332;12.410;2023-05-07T06:17:57;13.55;;;11.68;;
70416;SDS011;57839;51.332;12.410;2023-05-07T06:20:23;14.45;;;12.07;;
70416;SDS011;57839;51.332;12.410;2023-05-07T06:22:48;12.65;;;10.63;;
70416;SDS011;57839;51.332;12.410;2023-05-07T06:25:14;13.60;;;11.25;;
70416;SDS011;57839;51.332;12.410;2023-05-07T06:27:40;14.70;;;12.70;;
70416;SDS011;57839;51.332;12.410;2023-05-07T06:30:06;13.07;;;11.52;;
70416;SDS011;57839;51.332;12.410;2023-05-07T06:32:32;14.93;;;11.48;;
70416;SDS011;57839;51.332;12.410;2023-05-07T06:34:57;15.27;;;11.95;;
70416;SDS011;57839;51.332;12.410;2023-05-07T06:37:23;12.98;;;11.40;;
70416;SDS011;57839;51.332;12.410;2023-05-07T06:39:48;13.30;;;11.57;;
70416;SDS011;57839;51.332;12.410;2023-05-07T06:42:14;76.55;;;51.88;;
70416;SDS011;57839;51.332;12.410;2023-05-07T06:44:39;23.73;;;18.30;;
70416;SDS011;57839;51.332;12.410;2023-05-07T06:47:05;18.00;;;14.07;;
70416;SDS011;57839;51.332;12.410;2023-05-07T06:49:30;17.83;;;14.35;;
70416;SDS011;57839;51.332;12.410;2023-05-07T06:51:56;18.50;;;14.50;;
70416;SDS011;57839;51.332;12.410;2023-05-07T06:54:22;18.13;;;14.80;;
70416;SDS011;57839;51.332;12.410;2023-05-07T06:56:48;17.00;;;13.25;;
70416;SDS011;57839;51.332;12.410;2023-05-07T06:59:13;12.98;;;11.27;;
70416;SDS011;57839;51.332;12.410;2023-05-07T07:01:39;15.48;;;12.05;;
70416;SDS011;57839;51.332;12.410;2023-05-07T07:04:05;15.52;;;11.55;;
70416;SDS011;57839;51.332;12.410;2023-05-07T07:06:31;16.75;;;11.73;;
70416;SDS011;57839;51.332;12.410;2023-05-07T07:08:57;11.65;;;10.07;;
70416;SDS011;57839;51.332;12.410;2023-05-07T07:11:23;12.30;;;10.40;;
70416;SDS011;57839;51.332;12.410;2023-05-07T07:13:48;11.95;;;10.35;;
70416;SDS011;57839;51.332;12.410;2023-05-07T07:16:14;11.75;;;9.73;;
70416;SDS011;57839;51.332;12.410;2023-05-07T07:18:40;53.35;;;39.80;;
70416;SDS011;57839;51.332;12.410;2023-05-07T07:21:05;14.20;;;10.68;;
70416;SDS011;57839;51.332;12.410;2023-05-07T07:23:31;11.02;;;9.43;;
70416;SDS011;57839;51.332;12.410;2023-05-07T07:25:56;10.68;;;9.10;;
70416;SDS011;57839;51.332;12.410;2023-05-07T07:28:22;10.40;;;9.40;;
70416;SDS011;57839;51.332;12.410;2023-05-07T07:30:47;11.82;;;8.90;;
70416;SDS011;57839;51.332;12.410;2023-05-07T07:33:13;9.38;;;7.88;;
70416;SDS011;57839;51.332;12.410;2023-05-07T07:35:39;9.93;;;8.48;;
70416;SDS011;57839;51.332;12.410;2023-05-07T07:38:05;9.85;;;8.43;;
70416;SDS011;57839;51.332;12.410;2023-05-07T07:40:30;9.38;;;8.48;;
70416;SDS011;57839;51.332;12.410;2023-05-07T07:42:56;10.10;;;9.07;;
70416;SDS011;57839;51.332;12.410;2023-05-07T07:45:22;10.45;;;8.43;;
70416;SDS011;57839;51.332;12.410;2023-05-07T07:47:47;9.30;;;8.40;;
70416;SDS011;57839;51.332;12.410;2023-05-07T07:50:13;8.77;;;7.90;;
70416;SDS011;57839;51.332;12.410;2023-05-07T07:52:38;9.15;;;8.10;;
70416;SDS011;57839;51.332;12.410;2023-05-07T07:55:04;80.60;;;47.83;;
70416;SDS011;57839;51.332;12.410;2023-05-07T07:57:30;16.42;;;11.65;;
70416;SDS011;57839;51.332;12.410;2023-05-07T07:59:56;8.57;;;7.65;;
70416;SDS011;57839;51.332;12.410;2023-05-07T08:02:21;8.40;;;7.63;;
70416;SDS011;57839;51.332;12.410;2023-05-07T08:04:47;9.48;;;7.82;;
70416;SDS011;57839;51.332;12.410;2023-05-07T08:07:13;8.70;;;7.90;;
70416;SDS011;57839;51.332;12.410;2023-05-07T08:09:38;8.38;;;7.03;;
70416;SDS011;57839;51.332;12.410;2023-05-07T08:12:05;8.77;;;7.50;;
70416;SDS011;57839;51.332;12.410;2023-05-07T08:14:31;7.53;;;6.75;;
70416;SDS011;57839;51.332;12.410;2023-05-07T08:16:57;8.10;;;7.05;;
70416;SDS011;57839;51.332;12.410;2023-05-07T08:19:22;7.43;;;6.60;;
70416;SDS011;57839;51.332;12.410;2023-05-07T08:21:48;7.07;;;6.35;;
70416;SDS011;57839;51.332;12.410;2023-05-07T08:24:14;7.28;;;6.57;;
70416;SDS011;57839;51.332;12.410;2023-05-07T08:26:40;6.53;;;5.93;;
70416;SDS011;57839;51.332;12.410;2023-05-07T08:29:06;8.00;;;7.20;;
70416;SDS011;57839;51.332;12.410;2023-05-07T08:31:34;7.57;;;6.57;;
70416;SDS011;57839;51.332;12.410;2023-05-07T08:34:00;7.47;;;6.25;;
70416;SDS011;57839;51.332;12.410;2023-05-07T08:36:26;7.53;;;6.70;;
70416;SDS011;57839;51.332;12.410;2023-05-07T08:38:52;9.10;;;6.90;;
70416;SDS011;57839;51.332;12.410;2023-05-07T08:41:18;80.03;;;51.40;;
70416;SDS011;57839;51.332;12.410;2023-05-07T08:43:45;11.50;;;9.10;;
70416;SDS011;57839;51.332;12.410;2023-05-07T08:46:13;7.15;;;6.47;;
70416;SDS011;57839;51.332;12.410;2023-05-07T08:48:43;7.32;;;6.63;;
70416;SDS011;57839;51.332;12.410;2023-05-07T08:51:12;8.60;;;7.70;;
70416;SDS011;57839;51.332;12.410;2023-05-07T08:53:39;9.52;;;6.95;;
70416;SDS011;57839;51.332;12.410;2023-05-07T08:56:06;7.40;;;6.70;;
70416;SDS011;57839;51.332;12.410;2023-05-07T08:58:33;8.52;;;6.93;;
70416;SDS011;57839;51.332;12.410;2023-05-07T09:00:59;7.47;;;6.57;;
70416;SDS011;57839;51.332;12.410;2023-05-07T09:03:28;7.78;;;6.97;;
70416;SDS011;57839;51.332;12.410;2023-05-07T09:05:55;8.07;;;6.45;;
70416;SDS011;57839;51.332;12.410;2023-05-07T09:08:24;7.63;;;6.50;;
70416;SDS011;57839;51.332;12.410;2023-05-07T09:10:50;7.55;;;6.75;;
70416;SDS011;57839;51.332;12.410;2023-05-07T09:13:15;7.05;;;6.35;;
70416;SDS011;57839;51.332;12.410;2023-05-07T09:15:43;7.07;;;6.38;;
70416;SDS011;57839;51.332;12.410;2023-05-07T09:18:09;7.43;;;6.38;;
70416;SDS011;57839;51.332;12.410;2023-05-07T09:20:36;8.05;;;7.25;;
70416;SDS011;57839;51.332;12.410;2023-05-07T09:23:02;7.50;;;6.78;;
70416;SDS011;57839;51.332;12.410;2023-05-07T09:25:28;7.57;;;6.88;;
70416;SDS011;57839;51.332;12.410;2023-05-07T09:27:55;7.57;;;6.80;;
70416;SDS011;57839;51.332;12.410;2023-05-07T09:30:20;8.60;;;7.70;;
70416;SDS011;57839;51.332;12.410;2023-05-07T09:32:46;8.18;;;7.07;;
70416;SDS011;57839;51.332;12.410;2023-05-07T09:35:17;7.93;;;7.22;;
70416;SDS011;57839;51.332;12.410;2023-05-07T09:37:43;8.00;;;7.20;;
70416;SDS011;57839;51.332;12.410;2023-05-07T09:40:19;7.85;;;7.10;;
70416;SDS011;57839;51.332;12.410;2023-05-07T09:42:46;8.35;;;7.38;;
70416;SDS011;57839;51.332;12.410;2023-05-07T09:45:12;7.38;;;6.45;;
70416;SDS011;57839;51.332;12.410;2023-05-07T09:47:38;7.43;;;6.72;;
70416;SDS011;57839;51.332;12.410;2023-05-07T09:50:05;7.50;;;6.80;;
70416;SDS011;57839;51.332;12.410;2023-05-07T09:52:31;8.13;;;7.32;;
70416;SDS011;57839;51.332;12.410;2023-05-07T09:54:58;8.93;;;7.53;;
70416;SDS011;57839;51.332;12.410;2023-05-07T09:57:25;7.72;;;6.65;;
70416;SDS011;57839;51.332;12.410;2023-05-07T09:59:51;8.55;;;7.75;;
70416;SDS011;57839;51.332;12.410;2023-05-07T10:02:17;370.35;;;232.95;;
70416;SDS011;57839;51.332;12.410;2023-05-07T10:04:45;121.82;;;78.82;;
70416;SDS011;57839;51.332;12.410;2023-05-07T10:07:11;196.52;;;86.57;;
70416;SDS011;57839;51.332;12.410;2023-05-07T10:09:38;754.75;;;302.90;;
70416;SDS011;57839;51.332;12.410;2023-05-07T10:12:07;616.30;;;179.95;;
70416;SDS011;57839;51.332;12.410;2023-05-07T10:14:32;456.60;;;185.15;;
70416;SDS011;57839;51.332;12.410;2023-05-07T10:16:59;180.05;;;79.35;;
70416;SDS011;57839;51.332;12.410;2023-05-07T10:19:24;367.17;;;150.82;;
70416;SDS011;57839;51.332;12.410;2023-05-07T10:21:58;490.10;;;186.98;;
70416;SDS011;57839;51.332;12.410;2023-05-07T10:24:29;350.15;;;117.13;;
70416;SDS011;57839;51.332;12.410;2023-05-07T10:26:59;138.88;;;57.42;;
70416;SDS011;57839;51.332;12.410;2023-05-07T10:32:39;334.50;;;110.05;;
70416;SDS011;57839;51.332;12.410;2023-05-07T10:35:16;360.73;;;133.70;;
70416;SDS011;57839;51.332;12.410;2023-05-07T10:37:43;91.15;;;38.10;;
70416;SDS011;57839;51.332;12.410;2023-05-07T10:40:09;216.30;;;77.43;;
70416;SDS011;57839;51.332;12.410;2023-05-07T10:42:35;78.20;;;32.88;;
70416;SDS011;57839;51.332;12.410;2023-05-07T10:45:13;13.90;;;9.73;;
70416;SDS011;57839;51.332;12.410;2023-05-07T10:50:31;52.50;;;24.35;;
70416;SDS011;57839;51.332;12.410;2023-05-07T10:53:42;61.00;;;30.08;;
70416;SDS011;57839;51.332;12.410;2023-05-07T10:55:49;28.90;;;14.95;;
70416;SDS011;57839;51.332;12.410;2023-05-07T10:58:35;26.15;;;14.88;;
70416;SDS011;57839;51.332;12.410;2023-05-07T11:01:02;34.90;;;17.13;;
70416;SDS011;57839;51.332;12.410;2023-05-07T11:03:28;25.67;;;13.13;;
70416;SDS011;57839;51.332;12.410;2023-05-07T11:06:10;29.45;;;15.73;;
70416;SDS011;57839;51.332;12.410;2023-05-07T11:08:55;18.65;;;12.20;;
70416;SDS011;57839;51.332;12.410;2023-05-07T11:14:13;14.80;;;11.55;;
70416;SDS011;57839;51.332;12.410;2023-05-07T11:17:04;58.92;;;39.53;;
70416;SDS011;57839;51.332;12.410;2023-05-07T11:24:57;8.77;;;6.03;;
70416;SDS011;57839;51.332;12.410;2023-05-07T11:27:25;7.00;;;6.30;;
70416;SDS011;57839;51.332;12.410;2023-05-07T11:29:51;7.70;;;6.88;;
70416;SDS011;57839;51.332;12.410;2023-05-07T11:32:23;9.80;;;7.05;;
70416;SDS011;57839;51.332;12.410;2023-05-07T11:34:56;7.85;;;6.93;;
70416;SDS011;57839;51.332;12.410;2023-05-07T11:37:23;9.93;;;7.63;;
70416;SDS011;57839;51.332;12.410;2023-05-07T11:39:49;9.15;;;7.53;;
70416;SDS011;57839;51.332;12.410;2023-05-07T11:42:27;10.20;;;7.78;;
70416;SDS011;57839;51.332;12.410;2023-05-07T11:45:00;8.88;;;6.95;;
70416;SDS011;57839;51.332;12.410;2023-05-07T11:47:26;10.40;;;8.10;;
70416;SDS011;57839;51.332;12.410;2023-05-07T11:49:53;8.60;;;7.25;;
70416;SDS011;57839;51.332;12.410;2023-05-07T11:52:20;10.40;;;7.22;;
70416;SDS011;57839;51.332;12.410;2023-05-07T11:54:54;9.00;;;7.20;;
70416;SDS011;57839;51.332;12.410;2023-05-07T11:57:22;10.02;;;7.90;;
70416;SDS011;57839;51.332;12.410;2023-05-07T11:59:52;8.20;;;7.40;;
70416;SDS011;57839;51.332;12.410;2023-05-07T12:02:18;9.10;;;7.63;;
70416;SDS011;57839;51.332;12.410;2023-05-07T12:04:44;8.38;;;7.10;;
70416;SDS011;57839;51.332;12.410;2023-05-07T12:07:16;10.55;;;7.82;;
70416;SDS011;57839;51.332;12.410;2023-05-07T12:09:42;9.82;;;7.40;;
70416;SDS011;57839;51.332;12.410;2023-05-07T12:12:08;11.13;;;8.15;;
70416;SDS011;57839;51.332;12.410;2023-05-07T12:14:40;11.68;;;8.55;;
70416;SDS011;57839;51.332;12.410;2023-05-07T12:17:09;9.18;;;7.55;;
70416;SDS011;57839;51.332;12.410;2023-05-07T12:19:36;10.77;;;7.72;;
70416;SDS011;57839;51.332;12.410;2023-05-07T12:22:02;9.32;;;7.95;;
70416;SDS011;57839;51.332;12.410;2023-05-07T12:24:28;8.63;;;7.13;;
70416;SDS011;57839;51.332;12.410;2023-05-07T12:26:54;7.63;;;6.85;;
70416;SDS011;57839;51.332;12.410;2023-05-07T12:29:23;7.13;;;6.43;;
70416;SDS011;57839;51.332;12.410;2023-05-07T12:31:49;7.72;;;6.65;;
70416;SDS011;57839;51.332;12.410;2023-05-07T12:34:15;8.10;;;6.95;;
70416;SDS011;57839;51.332;12.410;2023-05-07T12:36:41;8.20;;;7.13;;
70416;SDS011;57839;51.332;12.410;2023-05-07T12:39:07;8.77;;;7.88;;
70416;SDS011;57839;51.332;12.410;2023-05-07T12:41:54;10.15;;;7.53;;
70416;SDS011;57839;51.332;12.410;2023-05-07T12:44:24;9.05;;;7.93;;
70416;SDS011;57839;51.332;12.410;2023-05-07T12:46:51;9.18;;;7.15;;
70416;SDS011;57839;51.332;12.410;2023-05-07T12:49:17;9.52;;;7.03;;
70416;SDS011;57839;51.332;12.410;2023-05-07T12:51:48;7.80;;;6.90;;
70416;SDS011;57839;51.332;12.410;2023-05-07T12:57:06;6.80;;;6.10;;
70416;SDS011;57839;51.332;12.410;2023-05-07T13:02:00;6.53;;;5.90;;
70416;SDS011;57839;51.332;12.410;2023-05-07T13:04:26;7.15;;;6.07;;
70416;SDS011;57839;51.332;12.410;2023-05-07T13:06:51;8.38;;;7.40;;
70416;SDS011;57839;51.332;12.410;2023-05-07T13:09:17;6.80;;;6.10;;
70416;SDS011;57839;51.332;12.410;2023-05-07T13:11:42;7.70;;;6.35;;
70416;SDS011;57839;51.332;12.410;2023-05-07T13:14:08;7.05;;;6.10;;
70416;SDS011;57839;51.332;12.410;2023-05-07T13:16:33;6.53;;;5.93;;
70416;SDS011;57839;51.332;12.410;2023-05-07T13:18:59;7.05;;;5.75;;
70416;SDS011;57839;51.332;12.410;2023-05-07T13:21:25;6.57;;;5.95;;
70416;SDS011;57839;51.332;12.410;2023-05-07T13:23:51;7.65;;;6.78;;
70416;SDS011;57839;51.332;12.410;2023-05-07T13:26:18;6.57;;;5.55;;
70416;SDS011;57839;51.332;12.410;2023-05-07T13:28:43;6.90;;;6.20;;
70416;SDS011;57839;51.332;12.410;2023-05-07T13:31:09;7.18;;;6.10;;
70416;SDS011;57839;51.332;12.410;2023-05-07T13:33:34;63.85;;;38.90;;
70416;SDS011;57839;51.332;12.410;2023-05-07T13:36:01;7.60;;;6.60;;
70416;SDS011;57839;51.332;12.410;2023-05-07T13:38:29;7.47;;;5.57;;
70416;SDS011;57839;51.332;12.410;2023-05-07T13:40:54;5.90;;;5.30;;
70416;SDS011;57839;51.332;12.410;2023-05-07T13:43:20;7.25;;;5.50;;
70416;SDS011;57839;51.332;12.410;2023-05-07T13:45:45;5.28;;;4.78;;
70416;SDS011;57839;51.332;12.410;2023-05-07T13:48:11;5.65;;;5.10;;
70416;SDS011;57839;51.332;12.410;2023-05-07T13:50:36;6.05;;;5.10;;
70416;SDS011;57839;51.332;12.410;2023-05-07T13:53:02;5.30;;;4.80;;
70416;SDS011;57839;51.332;12.410;2023-05-07T13:55:28;5.32;;;4.75;;
70416;SDS011;57839;51.332;12.410;2023-05-07T13:57:55;5.32;;;4.68;;
70416;SDS011;57839;51.332;12.410;2023-05-07T14:00:22;5.97;;;4.93;;
70416;SDS011;57839;51.332;12.410;2023-05-07T14:02:48;6.22;;;5.50;;
70416;SDS011;57839;51.332;12.410;2023-05-07T14:05:13;4.65;;;4.25;;
70416;SDS011;57839;51.332;12.410;2023-05-07T14:07:39;7.03;;;4.90;;
70416;SDS011;57839;51.332;12.410;2023-05-07T14:10:05;5.15;;;4.65;;
70416;SDS011;57839;51.332;12.410;2023-05-07T14:12:31;4.85;;;4.35;;
70416;SDS011;57839;51.332;12.410;2023-05-07T14:14:57;5.00;;;4.40;;
70416;SDS011;57839;51.332;12.410;2023-05-07T14:17:22;4.95;;;4.45;;
70416;SDS011;57839;51.332;12.410;2023-05-07T14:19:52;4.60;;;4.10;;
70416;SDS011;57839;51.332;12.410;2023-05-07T14:22:21;4.80;;;4.07;;
70416;SDS011;57839;51.332;12.410;2023-05-07T14:24:48;21.95;;;14.05;;
70416;SDS011;57839;51.332;12.410;2023-05-07T14:27:14;8.35;;;6.05;;
70416;SDS011;57839;51.332;12.410;2023-05-07T14:29:40;5.60;;;4.07;;
70416;SDS011;57839;51.332;12.410;2023-05-07T14:32:06;4.72;;;4.32;;
70416;SDS011;57839;51.332;12.410;2023-05-07T14:34:32;6.45;;;4.18;;